sensor_id;sensor_type;location;lat;lon;timestamp;P1;durP1;ratioP1;P2;durP2;ratioP2
56271;SDS011;42177;48.914;18.160;2023-06-04T00:01:49;5.9;;;4;;
56271;SDS011;42177;48.914;18.160;2023-06-04T00:06:49;7.4;;;3.9;;
56271;SDS011;42177;48.914;18.160;2023-06-04T00:11:49;7.4;;;3.9;;
56271;SDS011;42177;48.914;18.160;2023-06-04T00:16:49;7;;;4.1;;
56271;SDS011;42177;48.914;18.160;2023-06-04T00:21:49;7;;;4.1;;
56271;SDS011;42177;48.914;18.160;2023-06-04T00:26:49;5.4;;;3.4;;
56271;SDS011;42177;48.914;18.160;2023-06-04T00:31:49;5.4;;;3.4;;
56271;SDS011;42177;48.914;18.160;2023-06-04T00:36:49;6.6;;;3.6;;
56271;SDS011;42177;48.914;18.160;2023-06-04T00:41:49;6.6;;;3.6;;
56271;SDS011;42177;48.914;18.160;2023-06-04T00:46:49;5.1;;;3.4;;
56271;SDS011;42177;48.914;18.160;2023-06-04T00:51:49;5.1;;;3.4;;
56271;SDS011;42177;48.914;18.160;2023-06-04T00:56:49;8.9;;;4.5;;
56271;SDS011;42177;48.914;18.160;2023-06-04T01:01:51;8.9;;;4.5;;
56271;SDS011;42177;48.914;18.160;2023-06-04T01:06:50;5.7;;;3.8;;
56271;SDS011;42177;48.914;18.160;2023-06-04T01:11:49;5.7;;;3.8;;
56271;SDS011;42177;48.914;18.160;2023-06-04T01:16:50;6;;;4.1;;
56271;SDS011;42177;48.914;18.160;2023-06-04T01:21:50;6;;;4.1;;
56271;SDS011;42177;48.914;18.160;2023-06-04T01:26:49;6.2;;;4.3;;
56271;SDS011;42177;48.914;18.160;2023-06-04T01:31:49;6.2;;;4.3;;
56271;SDS011;42177;48.914;18.160;2023-06-04T01:36:49;5.1;;;3.7;;
56271;SDS011;42177;48.914;18.160;2023-06-04T01:41:49;5.1;;;3.7;;
56271;SDS011;42177;48.914;18.160;2023-06-04T01:46:49;7.7;;;4.2;;
56271;SDS011;42177;48.914;18.160;2023-06-04T01:51:49;7.7;;;4.2;;
56271;SDS011;42177;48.914;18.160;2023-06-04T01:56:49;5.6;;;3.5;;
56271;SDS011;42177;48.914;18.160;2023-06-04T02:01:49;5.6;;;3.5;;
56271;SDS011;42177;48.914;18.160;2023-06-04T02:06:50;5.7;;;3.4;;
56271;SDS011;42177;48.914;18.160;2023-06-04T02:11:49;5.7;;;3.4;;
56271;SDS011;42177;48.914;18.160;2023-06-04T02:16:49;5;;;3.6;;
56271;SDS011;42177;48.914;18.160;2023-06-04T02:21:49;5;;;3.6;;
56271;SDS011;42177;48.914;18.160;2023-06-04T02:26:49;5.2;;;3;;
56271;SDS011;42177;48.914;18.160;2023-06-04T02:31:49;5.2;;;3;;
56271;SDS011;42177;48.914;18.160;2023-06-04T02:36:49;5.2;;;3.5;;
56271;SDS011;42177;48.914;18.160;2023-06-04T02:41:49;5.2;;;3.5;;
56271;SDS011;42177;48.914;18.160;2023-06-04T02:46:49;5.4;;;3.5;;
56271;SDS011;42177;48.914;18.160;2023-06-04T02:51:49;5.4;;;3.5;;
56271;SDS011;42177;48.914;18.160;2023-06-04T02:56:49;5.1;;;3.7;;
56271;SDS011;42177;48.914;18.160;2023-06-04T03:01:49;5.1;;;3.7;;
56271;SDS011;42177;48.914;18.160;2023-06-04T03:06:49;4.7;;;3.4;;
56271;SDS011;42177;48.914;18.160;2023-06-04T03:11:49;4.7;;;3.4;;
56271;SDS011;42177;48.914;18.160;2023-06-04T03:16:49;5.1;;;3;;
56271;SDS011;42177;48.914;18.160;2023-06-04T03:21:49;5.1;;;3;;
56271;SDS011;42177;48.914;18.160;2023-06-04T03:26:49;4.5;;;2.9;;
56271;SDS011;42177;48.914;18.160;2023-06-04T03:31:49;4.5;;;2.9;;
56271;SDS011;42177;48.914;18.160;2023-06-04T03:36:49;4.4;;;3.1;;
56271;SDS011;42177;48.914;18.160;2023-06-04T03:41:49;4.4;;;3.1;;
56271;SDS011;42177;48.914;18.160;2023-06-04T03:46:49;3.9;;;2.6;;
56271;SDS011;42177;48.914;18.160;2023-06-04T03:51:49;3.9;;;2.6;;
56271;SDS011;42177;48.914;18.160;2023-06-04T03:56:49;5.4;;;3.4;;
56271;SDS011;42177;48.914;18.160;2023-06-04T04:01:49;5.4;;;3.4;;
56271;SDS011;42177;48.914;18.160;2023-06-04T04:06:49;4.1;;;2.7;;
56271;SDS011;42177;48.914;18.160;2023-06-04T04:11:49;4.1;;;2.7;;
56271;SDS011;42177;48.914;18.160;2023-06-04T04:16:49;5;;;3;;
56271;SDS011;42177;48.914;18.160;2023-06-04T04:21:49;5;;;3;;
56271;SDS011;42177;48.914;18.160;2023-06-04T04:26:49;5.5;;;2.7;;
56271;SDS011;42177;48.914;18.160;2023-06-04T04:31:49;5.5;;;2.7;;
56271;SDS011;42177;48.914;18.160;2023-06-04T04:36:49;4.8;;;3.3;;
56271;SDS011;42177;48.914;18.160;2023-06-04T04:41:49;4.8;;;3.3;;
56271;SDS011;42177;48.914;18.160;2023-06-04T04:46:49;4.7;;;3.2;;
56271;SDS011;42177;48.914;18.160;2023-06-04T04:51:49;4.7;;;3.2;;
56271;SDS011;42177;48.914;18.160;2023-06-04T04:56:49;5.7;;;3.2;;
56271;SDS011;42177;48.914;18.160;2023-06-04T05:01:49;5.7;;;3.2;;
56271;SDS011;42177;48.914;18.160;2023-06-04T05:06:49;6.6;;;3.8;;
56271;SDS011;42177;48.914;18.160;2023-06-04T05:11:49;6.6;;;3.8;;
56271;SDS011;42177;48.914;18.160;2023-06-04T05:16:49;6.2;;;3.4;;
56271;SDS011;42177;48.914;18.160;2023-06-04T05:21:49;6.2;;;3.4;;
56271;SDS011;42177;48.914;18.160;2023-06-04T05:26:49;6.4;;;4;;
56271;SDS011;42177;48.914;18.160;2023-06-04T05:31:49;6.4;;;4;;
56271;SDS011;42177;48.914;18.160;2023-06-04T05:36:49;7.2;;;3.8;;
56271;SDS011;42177;48.914;18.160;2023-06-04T05:41:49;7.2;;;3.8;;
56271;SDS011;42177;48.914;18.160;2023-06-04T05:46:49;5.8;;;3.6;;
56271;SDS011;42177;48.914;18.160;2023-06-04T05:51:49;5.8;;;3.6;;
56271;SDS011;42177;48.914;18.160;2023-06-04T05:56:49;5.4;;;3.3;;
56271;SDS011;42177;48.914;18.160;2023-06-04T06:01:49;5.4;;;3.3;;
56271;SDS011;42177;48.914;18.160;2023-06-04T06:06:49;6.3;;;3.6;;
56271;SDS011;42177;48.914;18.160;2023-06-04T06:11:49;6.3;;;3.6;;
56271;SDS011;42177;48.914;18.160;2023-06-04T06:16:49;4.8;;;3.2;;
56271;SDS011;42177;48.914;18.160;2023-06-04T06:21:49;4.8;;;3.2;;
56271;SDS011;42177;48.914;18.160;2023-06-04T06:26:49;7.6;;;3.2;;
56271;SDS011;42177;48.914;18.160;2023-06-04T06:31:49;7.6;;;3.2;;
56271;SDS011;42177;48.914;18.160;2023-06-04T06:36:49;4.7;;;3;;
56271;SDS011;42177;48.914;18.160;2023-06-04T06:41:49;4.7;;;3;;
56271;SDS011;42177;48.914;18.160;2023-06-04T06:46:49;6.9;;;4.3;;
56271;SDS011;42177;48.914;18.160;2023-06-04T06:51:49;6.9;;;4.3;;
56271;SDS011;42177;48.914;18.160;2023-06-04T06:56:49;5.9;;;3.4;;
56271;SDS011;42177;48.914;18.160;2023-06-04T07:01:49;5.9;;;3.4;;
56271;SDS011;42177;48.914;18.160;2023-06-04T07:06:49;7.3;;;3.7;;
56271;SDS011;42177;48.914;18.160;2023-06-04T07:11:49;7.3;;;3.7;;
56271;SDS011;42177;48.914;18.160;2023-06-04T07:16:49;6.2;;;3.4;;
56271;SDS011;42177;48.914;18.160;2023-06-04T07:21:50;6.2;;;3.4;;
56271;SDS011;42177;48.914;18.160;2023-06-04T07:26:49;6.8;;;2.8;;
56271;SDS011;42177;48.914;18.160;2023-06-04T07:31:49;6.8;;;2.8;;
56271;SDS011;42177;48.914;18.160;2023-06-04T07:36:49;4;;;2.8;;
56271;SDS011;42177;48.914;18.160;2023-06-04T07:41:49;4;;;2.8;;
56271;SDS011;42177;48.914;18.160;2023-06-04T07:46:49;3.8;;;2.7;;
56271;SDS011;42177;48.914;18.160;2023-06-04T07:51:49;3.8;;;2.7;;
56271;SDS011;42177;48.914;18.160;2023-06-04T07:56:49;5.3;;;2.2;;
56271;SDS011;42177;48.914;18.160;2023-06-04T08:01:50;5.3;;;2.2;;
56271;SDS011;42177;48.914;18.160;2023-06-04T08:06:49;5;;;2.1;;
56271;SDS011;42177;48.914;18.160;2023-06-04T08:11:49;5;;;2.1;;
56271;SDS011;42177;48.914;18.160;2023-06-04T08:16:49;11.3;;;10.2;;
56271;SDS011;42177;48.914;18.160;2023-06-04T08:21:49;11.3;;;10.2;;
56271;SDS011;42177;48.914;18.160;2023-06-04T08:26:49;5.2;;;3.2;;
56271;SDS011;42177;48.914;18.160;2023-06-04T08:31:49;5.2;;;3.2;;
56271;SDS011;42177;48.914;18.160;2023-06-04T08:36:49;5.4;;;1.9;;
56271;SDS011;42177;48.914;18.160;2023-06-04T08:41:51;5.4;;;1.9;;
56271;SDS011;42177;48.914;18.160;2023-06-04T08:46:51;4.4;;;2.1;;
56271;SDS011;42177;48.914;18.160;2023-06-04T08:51:49;4.4;;;2.1;;
56271;SDS011;42177;48.914;18.160;2023-06-04T08:56:49;2.8;;;1.7;;
56271;SDS011;42177;48.914;18.160;2023-06-04T09:01:51;2.8;;;1.7;;
56271;SDS011;42177;48.914;18.160;2023-06-04T09:06:49;3.5;;;2;;
56271;SDS011;42177;48.914;18.160;2023-06-04T09:11:51;3.5;;;2;;
56271;SDS011;42177;48.914;18.160;2023-06-04T09:16:50;7.5;;;4.5;;
56271;SDS011;42177;48.914;18.160;2023-06-04T09:21:50;7.5;;;4.5;;
56271;SDS011;42177;48.914;18.160;2023-06-04T09:26:50;6.5;;;2.3;;
56271;SDS011;42177;48.914;18.160;2023-06-04T09:31:57;6.5;;;2.3;;
56271;SDS011;42177;48.914;18.160;2023-06-04T09:36:50;3.9;;;1.9;;
56271;SDS011;42177;48.914;18.160;2023-06-04T09:41:56;3.9;;;1.9;;
56271;SDS011;42177;48.914;18.160;2023-06-04T09:46:53;2.5;;;1.8;;
56271;SDS011;42177;48.914;18.160;2023-06-04T09:51:50;2.5;;;1.8;;
56271;SDS011;42177;48.914;18.160;2023-06-04T09:56:49;4.4;;;2.1;;
56271;SDS011;42177;48.914;18.160;2023-06-04T10:01:49;4.4;;;2.1;;
56271;SDS011;42177;48.914;18.160;2023-06-04T10:06:49;3.6;;;2.1;;
56271;SDS011;42177;48.914;18.160;2023-06-04T10:11:50;3.6;;;2.1;;
56271;SDS011;42177;48.914;18.160;2023-06-04T10:16:49;11;;;9;;
56271;SDS011;42177;48.914;18.160;2023-06-04T10:21:49;11;;;9;;
56271;SDS011;42177;48.914;18.160;2023-06-04T10:26:49;7.1;;;2.5;;
56271;SDS011;42177;48.914;18.160;2023-06-04T10:31:53;7.1;;;2.5;;
56271;SDS011;42177;48.914;18.160;2023-06-04T10:36:49;4.5;;;2.4;;
56271;SDS011;42177;48.914;18.160;2023-06-04T10:41:56;4.5;;;2.4;;
56271;SDS011;42177;48.914;18.160;2023-06-04T10:46:49;4.3;;;2;;
56271;SDS011;42177;48.914;18.160;2023-06-04T10:51:49;4.3;;;2;;
56271;SDS011;42177;48.914;18.160;2023-06-04T10:56:49;3.1;;;1.9;;
56271;SDS011;42177;48.914;18.160;2023-06-04T11:01:49;3.1;;;1.9;;
56271;SDS011;42177;48.914;18.160;2023-06-04T11:06:59;8.4;;;2.3;;
56271;SDS011;42177;48.914;18.160;2023-06-04T11:11:55;8.4;;;2.3;;
56271;SDS011;42177;48.914;18.160;2023-06-04T11:16:49;4.4;;;1.6;;
56271;SDS011;42177;48.914;18.160;2023-06-04T11:21:49;4.4;;;1.6;;
56271;SDS011;42177;48.914;18.160;2023-06-04T11:26:49;2;;;1.5;;
56271;SDS011;42177;48.914;18.160;2023-06-04T11:31:49;2;;;1.5;;
56271;SDS011;42177;48.914;18.160;2023-06-04T11:36:49;4.1;;;1.7;;
56271;SDS011;42177;48.914;18.160;2023-06-04T11:41:50;4.1;;;1.7;;
56271;SDS011;42177;48.914;18.160;2023-06-04T11:46:49;3.6;;;1.6;;
56271;SDS011;42177;48.914;18.160;2023-06-04T11:51:50;3.6;;;1.6;;
56271;SDS011;42177;48.914;18.160;2023-06-04T11:56:50;1.9;;;1.6;;
56271;SDS011;42177;48.914;18.160;2023-06-04T12:01:50;1.9;;;1.6;;
56271;SDS011;42177;48.914;18.160;2023-06-04T12:06:50;3.7;;;2.1;;
56271;SDS011;42177;48.914;18.160;2023-06-04T12:11:50;3.7;;;2.1;;
56271;SDS011;42177;48.914;18.160;2023-06-04T12:16:57;3.7;;;1.6;;
56271;SDS011;42177;48.914;18.160;2023-06-04T12:21:58;3.7;;;1.6;;
56271;SDS011;42177;48.914;18.160;2023-06-04T12:27:00;4.7;;;2.1;;
56271;SDS011;42177;48.914;18.160;2023-06-04T12:31:49;4.7;;;2.1;;
56271;SDS011;42177;48.914;18.160;2023-06-04T12:36:50;4.5;;;2;;
56271;SDS011;42177;48.914;18.160;2023-06-04T12:41:49;4.5;;;2;;
56271;SDS011;42177;48.914;18.160;2023-06-04T12:46:49;3.9;;;2;;
56271;SDS011;42177;48.914;18.160;2023-06-04T12:51:49;3.9;;;2;;
56271;SDS011;42177;48.914;18.160;2023-06-04T12:56:50;3.5;;;1.7;;
56271;SDS011;42177;48.914;18.160;2023-06-04T13:01:50;3.5;;;1.7;;
56271;SDS011;42177;48.914;18.160;2023-06-04T13:06:50;2.7;;;2;;
56271;SDS011;42177;48.914;18.160;2023-06-04T13:11:50;2.7;;;2;;
56271;SDS011;42177;48.914;18.160;2023-06-04T13:16:50;3.1;;;1.8;;
56271;SDS011;42177;48.914;18.160;2023-06-04T13:21:49;3.1;;;1.8;;
56271;SDS011;42177;48.914;18.160;2023-06-04T13:26:49;4.6;;;2;;
56271;SDS011;42177;48.914;18.160;2023-06-04T13:31:50;4.6;;;2;;
56271;SDS011;42177;48.914;18.160;2023-06-04T13:36:49;5.6;;;2.2;;
56271;SDS011;42177;48.914;18.160;2023-06-04T13:41:49;5.6;;;2.2;;
56271;SDS011;42177;48.914;18.160;2023-06-04T13:46:49;3.2;;;2.2;;
56271;SDS011;42177;48.914;18.160;2023-06-04T13:51:50;3.2;;;2.2;;
56271;SDS011;42177;48.914;18.160;2023-06-04T13:56:50;4.8;;;3.5;;
56271;SDS011;42177;48.914;18.160;2023-06-04T14:01:49;4.8;;;3.5;;
56271;SDS011;42177;48.914;18.160;2023-06-04T14:06:49;4.6;;;3.5;;
56271;SDS011;42177;48.914;18.160;2023-06-04T14:11:49;4.6;;;3.5;;
56271;SDS011;42177;48.914;18.160;2023-06-04T14:16:50;3.8;;;2.3;;
56271;SDS011;42177;48.914;18.160;2023-06-04T14:21:49;3.8;;;2.3;;
56271;SDS011;42177;48.914;18.160;2023-06-04T14:26:49;5.5;;;2.5;;
56271;SDS011;42177;48.914;18.160;2023-06-04T14:31:50;5.5;;;2.5;;
56271;SDS011;42177;48.914;18.160;2023-06-04T14:36:50;13.4;;;6.7;;
56271;SDS011;42177;48.914;18.160;2023-06-04T14:41:49;13.4;;;6.7;;
56271;SDS011;42177;48.914;18.160;2023-06-04T14:46:50;3.7;;;2.2;;
56271;SDS011;42177;48.914;18.160;2023-06-04T14:51:50;3.7;;;2.2;;
56271;SDS011;42177;48.914;18.160;2023-06-04T14:56:50;4.8;;;2.8;;
56271;SDS011;42177;48.914;18.160;2023-06-04T15:01:50;4.8;;;2.8;;
56271;SDS011;42177;48.914;18.160;2023-06-04T15:06:49;4.7;;;2.9;;
56271;SDS011;42177;48.914;18.160;2023-06-04T15:11:50;4.7;;;2.9;;
56271;SDS011;42177;48.914;18.160;2023-06-04T15:16:50;11.3;;;9.4;;
56271;SDS011;42177;48.914;18.160;2023-06-04T15:21:50;11.3;;;9.4;;
56271;SDS011;42177;48.914;18.160;2023-06-04T15:26:49;4.9;;;3.2;;
56271;SDS011;42177;48.914;18.160;2023-06-04T15:31:50;4.9;;;3.2;;
56271;SDS011;42177;48.914;18.160;2023-06-04T15:36:50;6.1;;;3.4;;
56271;SDS011;42177;48.914;18.160;2023-06-04T15:41:50;6.1;;;3.4;;
56271;SDS011;42177;48.914;18.160;2023-06-04T15:46:50;7.2;;;3.5;;
56271;SDS011;42177;48.914;18.160;2023-06-04T15:51:50;7.2;;;3.5;;
56271;SDS011;42177;48.914;18.160;2023-06-04T15:56:50;6.2;;;3.5;;
56271;SDS011;42177;48.914;18.160;2023-06-04T16:01:50;6.2;;;3.5;;
56271;SDS011;42177;48.914;18.160;2023-06-04T16:06:50;4.1;;;3.4;;
56271;SDS011;42177;48.914;18.160;2023-06-04T16:11:50;4.1;;;3.4;;
56271;SDS011;42177;48.914;18.160;2023-06-04T16:16:50;5.7;;;3.9;;
56271;SDS011;42177;48.914;18.160;2023-06-04T16:21:50;5.7;;;3.9;;
56271;SDS011;42177;48.914;18.160;2023-06-04T16:26:50;5.5;;;3.5;;
56271;SDS011;42177;48.914;18.160;2023-06-04T16:31:50;5.5;;;3.5;;
56271;SDS011;42177;48.914;18.160;2023-06-04T16:36:50;5.8;;;3.8;;
56271;SDS011;42177;48.914;18.160;2023-06-04T16:41:50;5.8;;;3.8;;
56271;SDS011;42177;48.914;18.160;2023-06-04T16:46:50;4.2;;;3.3;;
56271;SDS011;42177;48.914;18.160;2023-06-04T16:51:50;4.2;;;3.3;;
56271;SDS011;42177;48.914;18.160;2023-06-04T16:56:50;5.7;;;3.3;;
56271;SDS011;42177;48.914;18.160;2023-06-04T17:01:50;5.7;;;3.3;;
56271;SDS011;42177;48.914;18.160;2023-06-04T17:06:50;4.6;;;3.3;;
56271;SDS011;42177;48.914;18.160;2023-06-04T17:11:50;4.6;;;3.3;;
56271;SDS011;42177;48.914;18.160;2023-06-04T17:16:50;4.4;;;3.3;;
56271;SDS011;42177;48.914;18.160;2023-06-04T17:21:50;4.4;;;3.3;;
56271;SDS011;42177;48.914;18.160;2023-06-04T17:26:50;5.8;;;3.1;;
56271;SDS011;42177;48.914;18.160;2023-06-04T17:31:50;5.8;;;3.1;;
56271;SDS011;42177;48.914;18.160;2023-06-04T17:36:50;8.5;;;6.5;;
56271;SDS011;42177;48.914;18.160;2023-06-04T17:41:50;8.5;;;6.5;;
56271;SDS011;42177;48.914;18.160;2023-06-04T17:46:50;7.2;;;5.2;;
56271;SDS011;42177;48.914;18.160;2023-06-04T17:51:50;7.2;;;5.2;;
56271;SDS011;42177;48.914;18.160;2023-06-04T17:56:50;6.9;;;3.5;;
56271;SDS011;42177;48.914;18.160;2023-06-04T18:01:50;6.9;;;3.5;;
56271;SDS011;42177;48.914;18.160;2023-06-04T18:06:50;4.2;;;3.3;;
56271;SDS011;42177;48.914;18.160;2023-06-04T18:11:50;4.2;;;3.3;;
56271;SDS011;42177;48.914;18.160;2023-06-04T18:16:50;5.2;;;3.2;;
56271;SDS011;42177;48.914;18.160;2023-06-04T18:21:50;5.2;;;3.2;;
56271;SDS011;42177;48.914;18.160;2023-06-04T18:26:50;6.1;;;3.3;;
56271;SDS011;42177;48.914;18.160;2023-06-04T18:31:50;6.1;;;3.3;;
56271;SDS011;42177;48.914;18.160;2023-06-04T18:36:50;3.8;;;3;;
56271;SDS011;42177;48.914;18.160;2023-06-04T18:41:50;3.8;;;3;;
56271;SDS011;42177;48.914;18.160;2023-06-04T18:46:50;5.3;;;3.2;;
56271;SDS011;42177;48.914;18.160;2023-06-04T18:51:50;5.3;;;3.2;;
56271;SDS011;42177;48.914;18.160;2023-06-04T18:56:50;11.6;;;10.2;;
56271;SDS011;42177;48.914;18.160;2023-06-04T19:01:50;11.6;;;10.2;;
56271;SDS011;42177;48.914;18.160;2023-06-04T19:06:50;13.2;;;8.8;;
56271;SDS011;42177;48.914;18.160;2023-06-04T19:11:50;13.2;;;8.8;;
56271;SDS011;42177;48.914;18.160;2023-06-04T19:16:50;8.7;;;5.9;;
56271;SDS011;42177;48.914;18.160;2023-06-04T19:21:50;8.7;;;5.9;;
56271;SDS011;42177;48.914;18.160;2023-06-04T19:26:50;7.5;;;5.3;;
56271;SDS011;42177;48.914;18.160;2023-06-04T19:31:50;7.5;;;5.3;;
56271;SDS011;42177;48.914;18.160;2023-06-04T19:36:50;7.6;;;4.8;;
56271;SDS011;42177;48.914;18.160;2023-06-04T19:41:50;7.6;;;4.8;;
56271;SDS011;42177;48.914;18.160;2023-06-04T19:46:50;6.2;;;4.5;;
56271;SDS011;42177;48.914;18.160;2023-06-04T19:51:50;6.2;;;4.5;;
56271;SDS011;42177;48.914;18.160;2023-06-04T19:56:50;6.9;;;4.1;;
56271;SDS011;42177;48.914;18.160;2023-06-04T20:01:50;6.9;;;4.1;;
56271;SDS011;42177;48.914;18.160;2023-06-04T20:06:50;6.7;;;4;;
56271;SDS011;42177;48.914;18.160;2023-06-04T20:11:50;6.7;;;4;;
56271;SDS011;42177;48.914;18.160;2023-06-04T20:16:50;7.4;;;4.4;;
56271;SDS011;42177;48.914;18.160;2023-06-04T20:21:50;7.4;;;4.4;;
56271;SDS011;42177;48.914;18.160;2023-06-04T20:26:50;5.9;;;4.2;;
56271;SDS011;42177;48.914;18.160;2023-06-04T20:31:50;5.9;;;4.2;;
56271;SDS011;42177;48.914;18.160;2023-06-04T20:36:50;8.8;;;4.4;;
56271;SDS011;42177;48.914;18.160;2023-06-04T20:41:50;8.8;;;4.4;;
56271;SDS011;42177;48.914;18.160;2023-06-04T20:46:50;7;;;4.2;;
56271;SDS011;42177;48.914;18.160;2023-06-04T20:51:50;7;;;4.2;;
56271;SDS011;42177;48.914;18.160;2023-06-04T20:56:50;7.3;;;4.9;;
56271;SDS011;42177;48.914;18.160;2023-06-04T21:01:50;7.3;;;4.9;;
56271;SDS011;42177;48.914;18.160;2023-06-04T21:06:50;6.8;;;4.9;;
56271;SDS011;42177;48.914;18.160;2023-06-04T21:11:50;6.8;;;4.9;;
56271;SDS011;42177;48.914;18.160;2023-06-04T21:16:50;6.2;;;4.8;;
56271;SDS011;42177;48.914;18.160;2023-06-04T21:21:50;6.2;;;4.8;;
56271;SDS011;42177;48.914;18.160;2023-06-04T21:26:50;6.9;;;4.9;;
56271;SDS011;42177;48.914;18.160;2023-06-04T21:31:50;6.9;;;4.9;;
56271;SDS011;42177;48.914;18.160;2023-06-04T21:36:50;6.9;;;4.6;;
56271;SDS011;42177;48.914;18.160;2023-06-04T21:41:50;6.9;;;4.6;;
56271;SDS011;42177;48.914;18.160;2023-06-04T21:46:50;5.2;;;4.6;;
56271;SDS011;42177;48.914;18.160;2023-06-04T21:51:50;5.2;;;4.6;;
56271;SDS011;42177;48.914;18.160;2023-06-04T21:56:50;6.4;;;4.4;;
56271;SDS011;42177;48.914;18.160;2023-06-04T22:01:50;6.4;;;4.4;;
56271;SDS011;42177;48.914;18.160;2023-06-04T22:06:50;6.2;;;4.8;;
56271;SDS011;42177;48.914;18.160;2023-06-04T22:11:50;6.2;;;4.8;;
56271;SDS011;42177;48.914;18.160;2023-06-04T22:16:50;6.5;;;5;;
56271;SDS011;42177;48.914;18.160;2023-06-04T22:21:50;6.5;;;5;;
56271;SDS011;42177;48.914;18.160;2023-06-04T22:26:50;7;;;4.7;;
56271;SDS011;42177;48.914;18.160;2023-06-04T22:31:50;7;;;4.7;;
56271;SDS011;42177;48.914;18.160;2023-06-04T22:36:50;7.2;;;4.7;;
56271;SDS011;42177;48.914;18.160;2023-06-04T22:41:50;7.2;;;4.7;;
56271;SDS011;42177;48.914;18.160;2023-06-04T22:46:50;7.3;;;4.6;;
56271;SDS011;42177;48.914;18.160;2023-06-04T22:51:50;7.3;;;4.6;;
56271;SDS011;42177;48.914;18.160;2023-06-04T22:56:50;6.6;;;4.9;;
56271;SDS011;42177;48.914;18.160;2023-06-04T23:01:50;6.6;;;4.9;;
56271;SDS011;42177;48.914;18.160;2023-06-04T23:06:50;5.7;;;4.3;;
56271;SDS011;42177;48.914;18.160;2023-06-04T23:11:50;5.7;;;4.3;;
56271;SDS011;42177;48.914;18.160;2023-06-04T23:16:50;5.8;;;4.6;;
56271;SDS011;42177;48.914;18.160;2023-06-04T23:21:50;5.8;;;4.6;;
56271;SDS011;42177;48.914;18.160;2023-06-04T23:26:50;5.8;;;4.7;;
56271;SDS011;42177;48.914;18.160;2023-06-04T23:31:50;5.8;;;4.7;;
56271;SDS011;42177;48.914;18.160;2023-06-04T23:36:50;7;;;4.6;;
56271;SDS011;42177;48.914;18.160;2023-06-04T23:41:50;7;;;4.6;;
56271;SDS011;42177;48.914;18.160;2023-06-04T23:46:50;5.7;;;4.8;;
56271;SDS011;42177;48.914;18.160;2023-06-04T23:51:50;5.7;;;4.8;;
56271;SDS011;42177;48.914;18.160;2023-06-04T23:56:50;7.6;;;4.7;;
